Time;durP1;ratioP1;P1;durP2;ratioP2;P2;SDS_P1;SDS_P2;PMS_P1;PMS_P2;Temp;Humidity;BMP_temperature;BMP_pressure;BME280_temperature;BME280_humidity;BME280_pressure;Samples;Min_cycle;Max_cycle;Signal;HPM_P1;HPM_P2
2021/06/24 07:07:57;;;;;;;870.20;812.83;;;18.30;99.90;;;;;;5090876;28;20567;-73
2021/06/24 07:10:23;;;;;;;965.35;897.20;;;17.40;99.90;;;;;;5090869;28;20171;-71
2021/06/24 07:12:49;;;;;;;1010.28;935.83;;;17.50;99.90;;;;;;5090795;28;20521;-71
2021/06/24 07:15:15;;;;;;;1068.25;983.42;;;17.50;99.90;;;;;;5090752;28;20640;-72
2021/06/24 07:17:41;;;;;;;1118.63;999.90;;;17.60;99.90;;;;;;5090675;28;20175;-72
2021/06/24 07:20:08;;;;;;;1163.82;999.90;;;17.60;99.90;;;;;;5090626;28;20632;-71
2021/06/24 07:22:33;;;;;;;1217.18;999.90;;;17.60;99.90;;;;;;5090617;28;20232;-70
2021/06/24 07:24:59;;;;;;;1240.47;999.90;;;17.70;99.90;;;;;;5090575;28;20635;-70
2021/06/24 07:27:25;;;;;;;1268.88;999.90;;;17.80;99.90;;;;;;5089111;28;20196;-70
2021/06/24 07:29:51;;;;;;;1293.50;999.90;;;17.80;99.90;;;;;;5090499;28;20601;-70
2021/06/24 07:32:17;;;;;;;1276.43;999.90;;;17.80;99.90;;;;;;5090432;28;20168;-70
2021/06/24 07:34:43;;;;;;;1320.50;999.90;;;17.80;99.90;;;;;;5089050;28;20176;-70
2021/06/24 07:37:08;;;;;;;1334.88;999.90;;;17.90;99.90;;;;;;5090306;28;20238;-70
2021/06/24 07:39:34;;;;;;;1342.35;999.90;;;17.90;99.90;;;;;;5090296;28;20192;-70
2021/06/24 07:42:00;;;;;;;1332.75;999.90;;;18.00;99.90;;;;;;5090214;28;20165;-70
2021/06/24 07:44:25;;;;;;;1351.53;999.90;;;18.10;99.90;;;;;;5090220;28;20565;-70
2021/06/24 07:46:51;;;;;;;1349.82;999.90;;;18.10;99.90;;;;;;5090150;28;20210;-68
2021/06/24 07:49:17;;;;;;;1354.90;999.90;;;18.20;99.90;;;;;;5090047;28;20187;-68
2021/06/24 07:51:42;;;;;;;1369.18;999.90;;;18.20;99.90;;;;;;5090087;28;20164;-68
2021/06/24 07:54:08;;;;;;;1356.25;999.90;;;18.20;99.90;;;;;;5090063;28;20163;-68
2021/06/24 07:56:33;;;;;;;1387.50;999.90;;;18.30;99.90;;;;;;5089944;28;20174;-68
2021/06/24 07:58:59;;;;;;;1397.75;999.90;;;18.30;99.90;;;;;;5089921;28;20167;-68
2021/06/24 08:01:24;;;;;;;1390.88;999.90;;;18.50;99.90;;;;;;5089960;28;20234;-68
2021/06/24 08:03:51;;;;;;;1418.00;999.90;;;18.50;99.90;;;;;;5089835;28;20255;-68
2021/06/24 08:06:17;;;;;;;1420.97;999.90;;;18.50;99.90;;;;;;5088268;28;20671;-68
2021/06/24 08:08:43;;;;;;;1378.00;999.90;;;18.60;99.90;;;;;;5089741;28;20305;-69
2021/06/24 08:11:08;;;;;;;1401.50;999.90;;;18.80;99.90;;;;;;5088453;28;20160;-69
2021/06/24 08:13:34;;;;;;;1401.95;999.90;;;18.80;99.90;;;;;;5088401;28;20244;-67
2021/06/24 08:16:00;;;;;;;1383.93;999.90;;;18.80;99.90;;;;;;5089656;28;20528;-68
2021/06/24 08:18:25;;;;;;;1423.45;999.90;;;18.90;99.90;;;;;;5081143;28;20182;-70
2021/06/24 08:20:52;;;;;;;1447.35;999.90;;;19.00;99.90;;;;;;5076062;28;20191;-69
2021/06/24 08:23:18;;;;;;;1415.53;999.90;;;19.10;99.90;;;;;;5075981;28;20628;-69
2021/06/24 08:25:44;;;;;;;1420.50;999.90;;;19.20;99.90;;;;;;5075854;28;20176;-70
2021/06/24 08:28:11;;;;;;;1393.65;999.90;;;19.10;99.90;;;;;;5075872;28;20256;-70
2021/06/24 08:30:43;;;;;;;1394.40;999.90;;;19.20;99.90;;;;;;5075965;28;20620;-67
2021/06/24 08:33:09;;;;;;;1404.53;999.90;;;19.20;99.90;;;;;;5075910;28;20616;-68
2021/06/24 08:35:35;;;;;;;1441.68;999.90;;;19.30;99.90;;;;;;5075639;28;20164;-68
2021/06/24 08:38:00;;;;;;;1373.53;999.90;;;19.30;99.90;;;;;;5075609;28;20194;-68
2021/06/24 08:40:26;;;;;;;1428.32;999.90;;;19.30;99.90;;;;;;5075437;28;20172;-69
2021/06/24 08:42:51;;;;;;;1393.00;999.90;;;19.30;99.90;;;;;;5075708;28;20166;-67
2021/06/24 08:45:17;;;;;;;1377.03;999.90;;;19.30;99.90;;;;;;5075611;28;20187;-67
2021/06/24 08:47:47;;;;;;;1420.05;999.90;;;19.30;99.90;;;;;;5075458;28;20295;-67
2021/06/24 08:50:14;;;;;;;1404.05;999.90;;;19.20;99.90;;;;;;5075515;28;20242;-71
2021/06/24 08:52:47;;;;;;;1397.05;999.90;;;19.20;99.90;;;;;;5074264;28;20634;-71
2021/06/24 08:55:13;;;;;;;1413.10;999.90;;;19.20;99.90;;;;;;5075384;28;20170;-70
2021/06/24 08:57:38;;;;;;;1457.32;999.90;;;19.20;99.90;;;;;;5075387;28;20517;-71
2021/06/24 09:00:05;;;;;;;1468.65;999.90;;;19.30;99.90;;;;;;5075336;28;20168;-70
2021/06/24 09:02:46;;;;;;;1411.00;999.90;;;19.40;99.90;;;;;;5075290;28;20226;-71
2021/06/24 09:05:14;;;;;;;1358.65;999.90;;;19.40;99.90;;;;;;5075208;28;20624;-71
2021/06/24 09:07:55;;;;;;;1421.88;999.90;;;19.30;99.90;;;;;;5074946;28;20269;-71
2021/06/24 09:10:23;;;;;;;1413.72;999.90;;;19.40;99.90;;;;;;5070905;28;20175;-71
2021/06/24 09:12:57;;;;;;;1383.00;999.90;;;19.40;99.90;;;;;;5075083;28;20168;-72
2021/06/24 09:15:37;;;;;;;1396.43;999.90;;;19.40;99.90;;;;;;5075086;28;20213;-72
2021/06/24 09:18:19;;;;;;;1363.82;999.90;;;19.40;99.90;;;;;;5074990;28;20171;-71
2021/06/24 09:20:46;;;;;;;1367.70;999.90;;;19.40;99.90;;;;;;5074979;28;20514;-71
2021/06/24 09:23:24;;;;;;;1443.70;999.90;;;19.40;99.90;;;;;;5074870;28;20160;-71
2021/06/24 09:26:14;;;;;;;1411.38;999.90;;;19.50;99.90;;;;;;5074814;28;20191;-71
2021/06/24 09:28:42;;;;;;;1416.63;999.90;;;19.60;99.90;;;;;;5074708;28;20206;-71
2021/06/24 09:31:28;;;;;;;1368.55;999.90;;;19.60;99.90;;;;;;5073911;28;20247;-71
2021/06/24 09:33:55;;;;;;;1435.93;999.90;;;19.50;99.90;;;;;;5073339;28;20167;-71
2021/06/24 09:36:39;;;;;;;1413.80;999.90;;;19.50;99.90;;;;;;5074444;28;20194;-71
2021/06/24 09:39:10;;;;;;;1370.45;999.90;;;19.40;99.90;;;;;;5074472;28;20163;-70
2021/06/24 09:41:36;;;;;;;1374.90;999.90;;;19.30;99.90;;;;;;5074422;28;20228;-71
2021/06/24 09:44:21;;;;;;;1409.40;999.90;;;19.30;99.90;;;;;;5074324;28;20168;-71
2021/06/24 09:46:47;;;;;;;1429.78;999.90;;;19.30;99.90;;;;;;5074259;28;20725;-71
2021/06/24 09:49:28;;;;;;;1411.82;999.90;;;19.40;99.90;;;;;;5074231;28;20187;-71
2021/06/24 09:51:56;;;;;;;1421.47;999.90;;;19.50;99.90;;;;;;5073102;28;20195;-67
2021/06/24 09:54:33;;;;;;;1377.70;999.90;;;19.50;99.90;;;;;;5074284;28;20168;-69
2021/06/24 09:56:59;;;;;;;1432.10;999.90;;;19.70;99.90;;;;;;5072794;28;20191;-67
2021/06/24 09:59:39;;;;;;;1429.15;999.90;;;19.80;99.90;;;;;;5073990;28;20172;-72
2021/06/24 10:02:07;;;;;;;1456.65;999.90;;;20.00;99.90;;;;;;5074142;28;20506;-72
2021/06/24 10:04:33;;;;;;;1409.40;999.90;;;20.10;99.90;;;;;;5073943;28;20156;-72
2021/06/24 10:07:01;;;;;;;1372.22;999.90;;;20.20;99.90;;;;;;5073810;28;20230;-72
2021/06/24 10:09:28;;;;;;;1459.38;999.90;;;20.20;99.90;;;;;;5073948;28;20179;-72
2021/06/24 10:11:55;;;;;;;1418.50;999.90;;;20.20;99.90;;;;;;5073867;28;20503;-71
2021/06/24 10:14:21;;;;;;;1356.03;999.90;;;20.10;99.90;;;;;;5073897;28;20168;-72
2021/06/24 10:17:02;;;;;;;1328.97;999.90;;;20.10;99.90;;;;;;5073760;28;20199;-72
2021/06/24 10:19:29;;;;;;;1346.65;999.90;;;19.90;99.90;;;;;;5073792;28;20233;-72
2021/06/24 10:22:19;;;;;;;1333.75;999.90;;;19.80;99.90;;;;;;5073699;28;20225;-71
2021/06/24 10:24:52;;;;;;;1307.70;999.90;;;19.70;99.90;;;;;;5072515;28;20168;-72
2021/06/24 10:27:18;;;;;;;1369.55;999.90;;;19.60;99.90;;;;;;5072484;28;20686;-72
2021/06/24 10:29:50;;;;;;;1398.75;999.90;;;19.50;99.90;;;;;;5073714;28;20255;-72
2021/06/24 10:32:26;;;;;;;1376.18;999.90;;;19.50;99.90;;;;;;5073855;28;20175;-72
2021/06/24 10:34:53;;;;;;;1375.57;999.90;;;19.60;99.90;;;;;;5072121;28;20171;-67
2021/06/24 10:37:23;;;;;;;1388.13;999.90;;;19.50;99.90;;;;;;5073111;28;20202;-67
2021/06/24 10:39:55;;;;;;;1364.15;999.90;;;19.60;99.90;;;;;;5073444;28;20288;-67
2021/06/24 10:42:22;;;;;;;1407.90;999.90;;;19.70;99.90;;;;;;5073220;28;20170;-67
2021/06/24 10:44:49;;;;;;;1416.25;999.90;;;19.60;99.90;;;;;;5073466;28;20198;-67
2021/06/24 10:47:35;;;;;;;1388.03;999.90;;;19.60;99.90;;;;;;5072978;28;20170;-70
2021/06/24 10:50:32;;;;;;;1373.50;999.90;;;19.60;99.90;;;;;;5073467;28;20254;-71
2021/06/24 10:53:03;;;;;;;1367.13;999.90;;;19.60;99.90;;;;;;5073397;28;20187;-70
2021/06/24 10:55:50;;;;;;;1364.05;999.90;;;19.60;99.90;;;;;;5070846;28;20255;-71
2021/06/24 10:58:27;;;;;;;1367.32;999.90;;;19.70;99.90;;;;;;5072447;28;20612;-71
2021/06/24 11:00:53;;;;;;;1373.22;999.90;;;19.60;99.90;;;;;;5071978;28;20252;-71
2021/06/24 11:03:31;;;;;;;1360.75;999.90;;;19.70;99.90;;;;;;5073325;28;20164;-71
2021/06/24 11:06:19;;;;;;;1359.25;999.90;;;19.90;99.90;;;;;;5072857;28;20207;-72
2021/06/24 11:08:45;;;;;;;1364.90;999.90;;;20.00;99.90;;;;;;5071817;28;20636;-71
2021/06/24 11:11:18;;;;;;;1366.13;999.90;;;20.00;99.90;;;;;;5073194;28;20182;-71
2021/06/24 11:13:48;;;;;;;1367.03;999.90;;;20.10;99.90;;;;;;5073170;28;20186;-71
2021/06/24 11:16:15;;;;;;;1354.38;999.90;;;20.10;99.90;;;;;;5070867;28;20655;-70
2021/06/24 11:18:42;;;;;;;1328.20;999.90;;;20.10;99.90;;;;;;5071740;28;20167;-71
2021/06/24 11:21:10;;;;;;;1322.45;999.90;;;20.10;99.90;;;;;;5073109;28;20175;-71
2021/06/24 11:23:53;;;;;;;1346.90;999.90;;;20.20;99.90;;;;;;5073129;28;20251;-71
2021/06/24 11:26:29;;;;;;;1341.32;999.90;;;20.20;99.90;;;;;;5073014;28;20180;-72
2021/06/24 11:29:02;;;;;;;1332.75;999.90;;;20.20;99.90;;;;;;5071762;28;20175;-72
2021/06/24 11:31:38;;;;;;;1367.72;999.90;;;20.20;99.90;;;;;;5073056;28;20214;-72
2021/06/24 11:36:34;;;;;;;1338.72;999.90;;;20.00;99.90;;;;;;5072992;28;20195;-68
2021/06/24 11:38:59;;;;;;;1340.40;999.90;;;20.00;99.90;;;;;;5072744;28;20179;-69
2021/06/24 11:41:25;;;;;;;1397.93;999.90;;;19.90;99.90;;;;;;5072870;28;20172;-68
2021/06/24 11:44:04;;;;;;;1386.18;999.90;;;20.00;99.90;;;;;;5072560;28;20186;-68
2021/06/24 11:46:32;;;;;;;1352.72;999.90;;;19.90;99.90;;;;;;5072574;28;20659;-67
2021/06/24 11:49:27;;;;;;;1357.32;999.90;;;19.90;99.90;;;;;;5072744;28;20196;-67
2021/06/24 12:03:06;;;;;;;1338.57;999.90;;;19.80;99.90;;;;;;5076409;28;20193;-67
2021/06/24 12:05:32;;;;;;;1338.53;999.90;;;19.70;99.90;;;;;;5076325;28;20168;-69
2021/06/24 12:07:58;;;;;;;1335.50;999.90;;;19.70;99.90;;;;;;5076399;28;20260;-69
2021/06/24 12:10:24;;;;;;;1343.85;999.90;;;19.50;99.90;;;;;;5076286;28;20305;-69
2021/06/24 12:12:50;;;;;;;1332.70;999.90;;;19.50;99.90;;;;;;5076197;28;20175;-70
2021/06/24 12:15:17;;;;;;;1361.72;999.90;;;19.40;99.90;;;;;;5076248;28;20192;-69
2021/06/24 12:17:42;;;;;;;1340.63;999.90;;;19.40;99.90;;;;;;5076159;28;20207;-70
2021/06/24 12:20:22;;;;;;;1356.38;999.90;;;19.30;99.90;;;;;;5075931;28;20168;-70
2021/06/24 12:22:59;;;;;;;1346.60;999.90;;;19.30;99.90;;;;;;5076151;28;20247;-70
2021/06/24 12:25:36;;;;;;;1326.47;999.90;;;19.20;99.90;;;;;;5075993;28;20629;-72
2021/06/24 12:28:06;;;;;;;1328.55;999.90;;;19.30;99.90;;;;;;5076002;28;20171;-71
2021/06/24 12:30:40;;;;;;;1338.07;999.90;;;19.20;99.90;;;;;;5074636;28;20183;-70
2021/06/24 12:33:09;;;;;;;1338.38;999.90;;;19.10;99.90;;;;;;5074618;28;20179;-71
2021/06/24 12:35:37;;;;;;;1360.15;999.90;;;19.10;99.90;;;;;;5075657;28;20168;-71
2021/06/24 12:38:07;;;;;;;1357.55;999.90;;;19.10;99.90;;;;;;5075668;28;20204;-71
2021/06/24 12:40:40;;;;;;;1356.75;999.90;;;19.10;99.90;;;;;;5074459;28;20615;-71
2021/06/24 12:43:07;;;;;;;1358.07;999.90;;;19.10;99.90;;;;;;5075670;28;20178;-71
2021/06/24 12:45:36;;;;;;;1356.78;999.90;;;19.00;99.90;;;;;;5075545;28;20156;-71
2021/06/24 12:48:02;;;;;;;1376.05;999.90;;;19.00;99.90;;;;;;5075419;28;20180;-72
2021/06/24 12:50:30;;;;;;;1349.88;999.90;;;19.10;99.90;;;;;;5074240;28;20196;-71
2021/06/24 12:53:00;;;;;;;1346.60;999.90;;;19.10;99.90;;;;;;5075641;28;20165;-71
2021/06/24 12:55:52;;;;;;;1367.20;999.90;;;19.10;99.90;;;;;;5074193;28;20179;-70
2021/06/24 12:58:38;;;;;;;1353.38;999.90;;;19.10;99.90;;;;;;5075465;28;20172;-71
2021/06/24 13:01:13;;;;;;;1355.60;999.90;;;19.10;99.90;;;;;;5074966;28;20548;-71
2021/06/24 13:03:49;;;;;;;1359.38;999.90;;;19.10;99.90;;;;;;5075021;28;20170;-70
2021/06/24 13:06:18;;;;;;;1363.22;999.90;;;19.10;99.90;;;;;;5075080;28;20341;-71
2021/06/24 13:09:14;;;;;;;1369.97;999.90;;;19.10;99.90;;;;;;5075060;28;20196;-71
2021/06/24 13:11:52;;;;;;;1344.63;999.90;;;19.10;99.90;;;;;;5075001;28;20184;-72
2021/06/24 13:14:22;;;;;;;1356.53;999.90;;;19.10;99.90;;;;;;5074919;28;20179;-73
2021/06/24 13:16:50;;;;;;;1370.97;999.90;;;19.20;99.90;;;;;;5074768;28;20188;-73
2021/06/24 13:19:26;;;;;;;1377.00;999.90;;;19.10;99.90;;;;;;5073658;28;20175;-70
2021/06/24 13:22:01;;;;;;;1377.30;999.90;;;19.30;99.90;;;;;;5074949;28;20179;-70
2021/06/24 13:24:40;;;;;;;1370.43;999.90;;;19.40;99.90;;;;;;5074760;28;20187;-70
2021/06/24 13:27:13;;;;;;;1376.47;999.90;;;19.50;99.90;;;;;;5074904;28;20164;-69
2021/06/24 13:29:57;;;;;;;1387.50;999.90;;;19.70;99.90;;;;;;5074843;28;20171;-69
2021/06/24 13:32:30;;;;;;;1381.75;999.90;;;19.80;99.90;;;;;;5074599;28;20213;-68
2021/06/24 13:35:09;;;;;;;1364.75;999.90;;;20.00;99.90;;;;;;5073429;28;20646;-68
2021/06/24 13:37:51;;;;;;;1407.53;999.90;;;20.30;99.90;;;;;;5074500;28;20325;-68
2021/06/24 13:40:19;;;;;;;1360.88;999.90;;;20.40;99.90;;;;;;5073218;28;20172;-69
2021/06/24 13:43:06;;;;;;;1383.97;999.90;;;20.60;99.90;;;;;;5074615;28;20160;-69
2021/06/24 13:45:34;;;;;;;1313.60;999.90;;;20.70;99.90;;;;;;5074445;28;20167;-69
2021/06/24 13:48:01;;;;;;;1407.38;999.90;;;20.70;99.90;;;;;;5074151;28;20195;-69
2021/06/24 13:50:27;;;;;;;1425.82;999.90;;;20.80;99.90;;;;;;5074373;28;20522;-69
2021/06/24 13:52:53;;;;;;;1349.95;999.90;;;21.00;99.90;;;;;;5074288;28;20225;-68
2021/06/24 13:55:18;;;;;;;1311.32;999.90;;;21.00;99.90;;;;;;5073024;28;20172;-70
2021/06/24 13:57:44;;;;;;;1467.20;999.90;;;21.30;99.90;;;;;;5072733;28;20206;-69
2021/06/24 14:00:10;;;;;;;1417.60;999.90;;;21.50;99.90;;;;;;5073919;28;20172;-71
2021/06/24 14:02:36;;;;;;;1424.05;999.90;;;21.70;99.90;;;;;;5074010;28;20175;-71
2021/06/24 14:05:02;;;;;;;1461.05;999.90;;;22.00;99.90;;;;;;5073776;28;20172;-69
2021/06/24 14:07:28;;;;;;;1398.45;999.90;;;22.30;99.90;;;;;;5073517;28;20219;-69
2021/06/24 14:09:53;;;;;;;1393.80;999.90;;;22.30;99.90;;;;;;5073703;28;20693;-69
2021/06/24 14:12:19;;;;;;;1411.43;999.90;;;22.40;99.90;;;;;;5073782;28;20637;-69
2021/06/24 14:14:44;;;;;;;1338.45;999.90;;;22.50;99.90;;;;;;5073674;28;20167;-69
2021/06/24 14:17:10;;;;;;;1415.90;999.90;;;22.50;99.90;;;;;;5073063;28;20203;-69
2021/06/24 14:19:36;;;;;;;1581.88;999.90;;;22.50;99.90;;;;;;5072384;28;20176;-68
2021/06/24 14:22:06;;;;;;;1442.63;999.90;;;22.70;99.90;;;;;;5072188;28;20636;-69
2021/06/24 14:24:34;;;;;;;1253.40;999.90;;;22.90;99.90;;;;;;5073544;28;20160;-69
2021/06/24 14:27:00;;;;;;;1255.45;999.90;;;23.10;99.90;;;;;;5073557;28;20179;-69
2021/06/24 14:29:27;;;;;;;1249.20;999.90;;;23.00;99.90;;;;;;5073585;28;20171;-69
2021/06/24 14:31:56;;;;;;;1241.85;999.90;;;23.00;99.90;;;;;;5073349;28;20574;-69
2021/06/24 14:34:23;;;;;;;1156.85;999.90;;;22.70;99.90;;;;;;5073313;28;20201;-68
2021/06/24 14:36:49;;;;;;;1127.47;999.90;;;22.50;99.90;;;;;;5072062;28;20605;-70
2021/06/24 14:39:15;;;;;;;1229.32;999.90;;;22.30;99.90;;;;;;5073396;28;20195;-70
2021/06/24 14:41:41;;;;;;;1165.60;999.90;;;22.10;99.90;;;;;;5073115;28;20225;-68
2021/06/24 14:44:08;;;;;;;1222.63;999.90;;;21.90;99.90;;;;;;5073497;28;20164;-70
2021/06/24 14:46:34;;;;;;;1243.72;999.90;;;21.60;99.90;;;;;;5073470;28;20168;-69
2021/06/24 14:49:00;;;;;;;1249.70;999.90;;;21.50;99.90;;;;;;5073384;28;20528;-68
2021/06/24 14:51:26;;;;;;;1202.38;999.90;;;21.40;99.90;;;;;;5073468;28;20572;-70
2021/06/24 14:53:52;;;;;;;1246.00;999.90;;;21.30;99.90;;;;;;5072016;28;20201;-71
2021/06/24 14:56:19;;;;;;;1215.95;999.90;;;21.20;99.90;;;;;;5071488;28;20198;-70
2021/06/24 14:58:48;;;;;;;1248.40;999.90;;;21.20;99.90;;;;;;5072254;28;20175;-70
2021/06/24 15:01:15;;;;;;;1230.93;999.90;;;21.20;99.90;;;;;;5072725;28;20172;-70
2021/06/24 15:03:41;;;;;;;1248.63;999.90;;;21.20;99.90;;;;;;5072829;28;20190;-70
2021/06/24 15:06:07;;;;;;;1238.57;999.90;;;21.20;99.90;;;;;;5072481;28;20633;-71
2021/06/24 15:08:32;;;;;;;1224.90;999.90;;;21.20;99.90;;;;;;5072844;28;20167;-71
2021/06/24 15:10:58;;;;;;;1251.85;999.90;;;21.10;99.90;;;;;;5073088;28;20521;-71
2021/06/24 15:13:24;;;;;;;1233.55;999.90;;;21.30;99.90;;;;;;5073185;28;20176;-71
2021/06/24 15:15:49;;;;;;;1205.65;999.90;;;21.30;99.90;;;;;;5073137;28;20183;-71
2021/06/24 15:18:15;;;;;;;1192.03;999.90;;;21.50;99.90;;;;;;5073046;28;20160;-71
2021/06/24 15:20:40;;;;;;;1224.63;999.90;;;21.60;99.90;;;;;;5073156;28;20206;-71
2021/06/24 15:23:07;;;;;;;1152.03;999.90;;;21.70;99.90;;;;;;5073093;28;20183;-71
2021/06/24 15:25:33;;;;;;;1204.65;999.90;;;21.80;99.90;;;;;;5073080;28;20160;-71
2021/06/24 15:27:59;;;;;;;1215.10;999.90;;;21.60;99.90;;;;;;5073904;28;20526;-65
2021/06/24 15:30:26;;;;;;;1203.75;999.90;;;21.70;99.90;;;;;;5076974;28;20168;-64
2021/06/24 15:32:53;;;;;;;1175.10;999.90;;;21.70;99.90;;;;;;5076852;28;20172;-64
2021/06/24 15:35:20;;;;;;;1188.15;999.90;;;21.60;99.90;;;;;;5076993;28;20250;-64
2021/06/24 15:37:46;;;;;;;1186.13;999.90;;;21.40;99.90;;;;;;5076677;28;20231;-64
2021/06/24 15:40:14;;;;;;;1242.32;999.90;;;21.30;99.90;;;;;;5076824;28;20164;-64
2021/06/24 15:42:44;;;;;;;1255.72;999.90;;;21.20;99.90;;;;;;5076843;28;20522;-64
2021/06/24 15:45:11;;;;;;;1221.22;999.90;;;21.10;99.90;;;;;;5076699;28;20226;-64
2021/06/24 15:47:36;;;;;;;1203.38;999.90;;;21.10;99.90;;;;;;5076373;28;20270;-64
2021/06/24 15:50:04;;;;;;;1227.57;999.90;;;21.10;99.90;;;;;;5075355;28;20249;-64
2021/06/24 15:52:29;;;;;;;1262.35;999.90;;;21.00;99.90;;;;;;5076445;28;20168;-64
2021/06/24 15:54:55;;;;;;;1231.18;999.90;;;21.00;99.90;;;;;;5076498;28;20176;-64
2021/06/24 15:57:21;;;;;;;1245.85;999.90;;;21.00;99.90;;;;;;5076434;28;20249;-64
2021/06/24 15:59:46;;;;;;;1221.38;999.90;;;21.00;99.90;;;;;;5075106;28;20601;-64
2021/06/24 16:02:12;;;;;;;1246.05;999.90;;;21.00;99.90;;;;;;5076186;28;20167;-64
2021/06/24 16:04:37;;;;;;;1255.05;999.90;;;20.90;99.90;;;;;;5076368;28;20524;-64
2021/06/24 16:07:05;;;;;;;1247.82;999.90;;;20.90;99.90;;;;;;5075958;28;20243;-64
2021/06/24 16:09:31;;;;;;;1266.65;999.90;;;20.80;99.90;;;;;;5075019;28;20225;-64
2021/06/24 16:12:00;;;;;;;1266.43;999.90;;;20.80;99.90;;;;;;5076289;28;20246;-64
2021/06/24 16:14:27;;;;;;;1276.75;999.90;;;20.80;99.90;;;;;;5075746;28;20500;-64
2021/06/24 16:16:54;;;;;;;1271.50;999.90;;;20.80;99.90;;;;;;5075916;28;20248;-64
2021/06/24 16:19:20;;;;;;;1253.80;999.90;;;20.80;99.90;;;;;;5076111;28;20160;-64
2021/06/24 16:21:45;;;;;;;1244.72;999.90;;;20.70;99.90;;;;;;5076163;28;20167;-64
2021/06/24 16:24:16;;;;;;;1263.03;999.90;;;20.70;99.90;;;;;;5075727;28;20187;-64
2021/06/24 16:26:42;;;;;;;1268.03;999.90;;;20.70;99.90;;;;;;5076010;28;20168;-64
2021/06/24 16:29:08;;;;;;;1270.55;999.90;;;20.60;99.90;;;;;;5075712;28;20586;-65
2021/06/24 16:31:34;;;;;;;1233.20;999.90;;;20.60;99.90;;;;;;5075932;28;20225;-65
2021/06/24 16:34:00;;;;;;;1268.88;999.90;;;20.50;99.90;;;;;;5075884;28;20172;-65
2021/06/24 16:36:26;;;;;;;1247.95;999.90;;;20.40;99.90;;;;;;5075759;28;20199;-65
2021/06/24 16:38:52;;;;;;;1258.63;999.90;;;20.40;99.90;;;;;;5075268;28;20241;-65
2021/06/24 16:41:18;;;;;;;1276.55;999.90;;;20.20;99.90;;;;;;5075538;28;20187;-64
2021/06/24 16:43:43;;;;;;;1304.15;999.90;;;20.20;99.90;;;;;;5075674;28;20210;-64
2021/06/24 16:46:09;;;;;;;1266.20;999.90;;;20.20;99.90;;;;;;5075665;28;20226;-64
2021/06/24 16:48:35;;;;;;;1300.25;999.90;;;20.20;99.90;;;;;;5075637;28;20176;-64
2021/06/24 16:51:00;;;;;;;1260.68;999.90;;;20.20;99.90;;;;;;5075655;28;20237;-64
2021/06/24 16:53:26;;;;;;;1277.35;999.90;;;20.20;99.90;;;;;;5075601;28;20164;-64
2021/06/24 16:55:51;;;;;;;1277.50;999.90;;;20.20;99.90;;;;;;5074108;28;20629;-64
2021/06/24 16:58:17;;;;;;;1298.60;999.90;;;20.30;99.90;;;;;;5075364;28;20211;-64
2021/06/24 17:00:43;;;;;;;1300.93;999.90;;;20.40;99.90;;;;;;5074084;28;20279;-64
2021/06/24 17:03:08;;;;;;;1281.20;999.90;;;20.50;99.90;;;;;;5075437;28;20226;-64
2021/06/24 17:05:37;;;;;;;1270.10;999.90;;;20.60;99.90;;;;;;5075166;28;20164;-65
2021/06/24 17:08:03;;;;;;;1239.05;999.90;;;20.70;99.90;;;;;;5075184;28;20241;-64
2021/06/24 17:10:29;;;;;;;1259.13;999.90;;;20.70;99.90;;;;;;5075178;28;20167;-64
2021/06/24 17:12:55;;;;;;;1270.13;999.90;;;20.70;99.90;;;;;;5075071;28;20266;-64
2021/06/24 17:15:20;;;;;;;1241.63;999.90;;;20.60;99.90;;;;;;5075129;28;20637;-64
2021/06/24 17:17:46;;;;;;;1256.03;999.90;;;20.60;99.90;;;;;;5074962;28;20200;-64
2021/06/24 17:20:15;;;;;;;1249.97;999.90;;;20.50;99.90;;;;;;5074781;28;20259;-64
2021/06/24 17:22:41;;;;;;;1235.05;999.90;;;20.50;99.90;;;;;;5074947;28;20160;-64
2021/06/24 17:25:08;;;;;;;1252.88;999.90;;;20.50;99.90;;;;;;5074911;28;20160;-64
2021/06/24 17:27:34;;;;;;;1242.07;999.90;;;20.40;99.90;;;;;;5074782;28;20175;-64
2021/06/24 17:30:00;;;;;;;1245.43;999.90;;;20.20;99.90;;;;;;5074787;28;20176;-64
2021/06/24 17:32:26;;;;;;;1265.45;999.90;;;20.20;99.90;;;;;;5074781;28;20178;-64
2021/06/24 17:34:52;;;;;;;1244.78;999.90;;;20.10;99.90;;;;;;5074697;28;20167;-64
2021/06/24 17:37:18;;;;;;;1279.00;999.90;;;20.00;99.90;;;;;;5074616;28;20198;-64
2021/06/24 17:39:45;;;;;;;1233.50;999.90;;;19.90;99.90;;;;;;5074562;28;20629;-64
2021/06/24 17:42:14;;;;;;;1241.57;999.90;;;19.70;99.90;;;;;;5074470;28;20164;-64
2021/06/24 17:44:42;;;;;;;1244.07;999.90;;;19.60;99.90;;;;;;5074434;28;20164;-64
2021/06/24 17:47:08;;;;;;;1253.40;999.90;;;19.50;99.90;;;;;;5074357;28;20189;-64
2021/06/24 18:42:37;;;;;;;799.72;748.72;;;18.50;99.90;;;;;;5090947;28;20602;-64
2021/06/24 18:45:06;;;;;;;937.55;874.03;;;18.60;99.90;;;;;;5090869;28;20171;-65
2021/06/24 18:47:31;;;;;;;1081.90;994.45;;;18.70;99.90;;;;;;5090856;28;20506;-65
2021/06/24 18:49:57;;;;;;;1159.65;999.90;;;18.80;99.90;;;;;;5090800;28;20174;-65
2021/06/24 18:52:23;;;;;;;1231.45;999.90;;;18.90;99.90;;;;;;5090761;28;20576;-65
2021/06/24 18:54:48;;;;;;;1261.32;999.90;;;18.90;99.90;;;;;;5090567;28;20269;-65
2021/06/24 18:57:14;;;;;;;1283.78;999.90;;;18.80;99.90;;;;;;5090642;28;20195;-65
2021/06/24 18:59:39;;;;;;;1290.68;999.90;;;18.80;99.90;;;;;;5090601;28;20180;-65
2021/06/24 19:02:05;;;;;;;1288.10;999.90;;;18.80;99.90;;;;;;5089045;28;20199;-65
2021/06/24 19:04:31;;;;;;;1309.30;999.90;;;18.70;99.90;;;;;;5090310;28;20198;-65
2021/06/24 19:06:56;;;;;;;1307.47;999.90;;;18.60;99.90;;;;;;5090130;28;20612;-65
2021/06/24 19:09:22;;;;;;;1310.55;999.90;;;18.50;99.90;;;;;;5090407;28;20197;-65
